Terminal Aerodrome Forecast
Issued by NWS

Home | Current Version | Previous Version | Text Only | Print | Product List | Glossary On
Versions: 1 2 3 4 5 6 7 8 9 10 11 12 13 14 15
000
FTUS46 KSEW 221733
TAFOLM
TAF
KOLM 221733Z 2218/2318 18006KT P6SM VCSH SCT035 BKN050
      TEMPO 2218/2220 -SHRA BKN035
     FM222000 20007KT P6SM SCT050 BKN100
     FM230600 00000KT P6SM SCT040
     FM230900 00000KT 1/2SM FG BKN001=

USA.gov is the U.S. government's official web portal to all federal, state and local government web resources and services.